Time;durP1;ratioP1;P1;durP2;ratioP2;P2;SDS_P1;SDS_P2;PMS_P1;PMS_P2;Temp;Humidity;BMP_temperature;BMP_pressure;BME280_temperature;BME280_humidity;BME280_pressure;Samples;Min_cycle;Max_cycle;Signal;HPM_P1;HPM_P2
2021/11/22 00:01:38;;;;;;;26.50;18.63;;;;;;;5.50;89.40;100037.27;1452403;90;21334;-89
2021/11/22 00:04:04;;;;;;;24.83;19.37;;;;;;;5.47;88.97;100047.99;1447977;90;21481;-89
2021/11/22 00:06:31;;;;;;;25.93;18.67;;;;;;;5.40;89.15;100056.84;1453604;90;21430;-89
2021/11/22 00:08:57;;;;;;;24.27;17.43;;;;;;;5.31;89.43;100059.73;1458709;90;21437;-89
2021/11/22 00:11:23;;;;;;;27.93;20.37;;;;;;;5.28;89.65;100056.05;1455285;90;22375;-89
2021/11/22 00:13:49;;;;;;;25.20;18.67;;;;;;;5.28;89.72;100056.53;1454706;89;21429;-88
2021/11/22 00:16:15;;;;;;;24.77;17.77;;;;;;;5.29;89.78;100063.43;1445531;90;21304;-89
2021/11/22 00:18:43;;;;;;;26.03;17.90;;;;;;;5.29;89.98;100065.58;1457517;90;21357;-88
2021/11/22 00:21:09;;;;;;;25.17;18.53;;;;;;;5.28;89.82;100062.61;1461222;90;21429;-89
2021/11/22 00:23:35;;;;;;;27.10;20.10;;;;;;;5.28;89.74;100069.16;1461017;90;21356;-89
2021/11/22 00:26:01;;;;;;;30.43;22.70;;;;;;;5.26;89.78;100067.62;1459096;90;21481;-89
2021/11/22 00:28:27;;;;;;;29.13;21.20;;;;;;;5.21;89.92;100070.63;1453719;89;21481;-90
2021/11/22 00:30:53;;;;;;;26.37;19.00;;;;;;;5.18;90.15;100073.50;1453156;89;22361;-89
2021/11/22 00:33:20;;;;;;;24.37;18.40;;;;;;;5.20;90.05;100074.19;1455905;90;22412;-88
2021/11/22 00:35:49;;;;;;;24.33;17.43;;;;;;;5.18;90.37;100074.80;1454011;90;21467;-89
2021/11/22 00:38:16;;;;;;;26.70;18.43;;;;;;;5.17;90.14;100071.32;1452068;90;21554;-90
2021/11/22 00:40:42;;;;;;;26.97;19.20;;;;;;;5.20;90.24;100071.56;1456773;90;21475;-90
2021/11/22 00:43:10;;;;;;;29.33;21.07;;;;;;;5.19;90.36;100075.16;1447251;90;22557;-90
2021/11/22 00:45:36;;;;;;;29.30;20.40;;;;;;;5.19;90.15;100083.02;1455179;90;22437;-89
2021/11/22 00:48:04;;;;;;;30.53;20.83;;;;;;;5.15;90.40;100077.64;1451147;90;22338;-91
2021/11/22 00:50:32;;;;;;;29.70;20.97;;;;;;;5.12;90.41;100072.64;1456874;89;22472;-89
2021/11/22 00:52:58;;;;;;;30.67;22.10;;;;;;;5.12;90.52;100072.64;1458398;90;22523;-89
2021/11/22 00:55:24;;;;;;;25.07;17.27;;;;;;;5.13;90.52;100067.77;1457741;90;21423;-89
2021/11/22 00:57:51;;;;;;;25.70;18.60;;;;;;;5.12;90.47;100071.33;1447527;90;21466;-89
2021/11/22 01:00:20;;;;;;;26.90;19.17;;;;;;;5.14;90.41;100078.61;1450278;89;21964;-90
2021/11/22 01:02:46;;;;;;;28.43;18.20;;;;;;;5.15;90.37;100069.77;1438946;89;21422;-90
2021/11/22 01:05:13;;;;;;;27.90;18.57;;;;;;;5.14;90.34;100070.73;1459786;90;22324;-91
2021/11/22 01:07:39;;;;;;;30.27;19.00;;;;;;;5.11;90.44;100072.30;1451783;89;21287;-91
2021/11/22 01:10:07;;;;;;;28.07;21.13;;;;;;;5.07;90.46;100069.09;1452576;89;21397;-92
2021/11/22 01:12:34;;;;;;;28.23;18.17;;;;;;;5.02;90.70;100065.98;1456384;89;22323;-89
2021/11/22 01:15:04;;;;;;;28.17;19.77;;;;;;;5.03;90.65;100064.19;1452384;89;21408;-89
2021/11/22 01:17:30;;;;;;;27.67;18.98;;;;;;;5.05;90.61;100071.47;1456099;89;21444;-89
2021/11/22 01:19:57;;;;;;;23.83;17.00;;;;;;;5.09;90.64;100070.27;1459671;89;21422;-89
2021/11/22 01:22:25;;;;;;;27.53;20.13;;;;;;;5.10;90.39;100065.39;1452387;89;21323;-88
2021/11/22 01:24:52;;;;;;;23.90;17.77;;;;;;;5.09;90.12;100069.81;1452595;89;21333;-89
2021/11/22 01:27:18;;;;;;;27.73;17.60;;;;;;;5.01;90.52;100055.15;1450055;89;21385;-88
2021/11/22 01:29:45;;;;;;;24.53;16.93;;;;;;;5.00;90.36;100064.44;1455304;89;22449;-89
2021/11/22 01:32:11;;;;;;;27.13;19.37;;;;;;;4.96;90.51;100070.41;1455685;89;21370;-88
2021/11/22 01:34:39;;;;;;;26.80;18.63;;;;;;;4.94;90.52;100070.52;1451501;89;21650;-88
2021/11/22 01:37:06;;;;;;;26.47;19.03;;;;;;;4.92;90.62;100073.75;1450519;89;22323;-88
2021/11/22 01:39:32;;;;;;;25.57;18.73;;;;;;;4.94;90.59;100077.06;1467012;89;21400;-88
2021/11/22 01:42:00;;;;;;;23.83;16.93;;;;;;;4.92;90.74;100069.81;1458426;89;21459;-88
2021/11/22 01:44:26;;;;;;;30.33;19.97;;;;;;;4.95;90.65;100080.06;1452096;89;21348;-87
2021/11/22 01:46:52;;;;;;;25.23;16.60;;;;;;;4.96;90.66;100075.66;1457791;89;21398;-87
2021/11/22 01:49:19;;;;;;;28.53;19.73;;;;;;;4.94;90.65;100077.06;1445150;89;21422;-87
2021/11/22 01:51:46;;;;;;;32.00;20.03;;;;;;;4.94;90.54;100077.06;1457587;89;21392;-88
2021/11/22 01:54:13;;;;;;;30.13;19.50;;;;;;;4.92;90.70;100071.13;1462381;89;21445;-88
2021/11/22 01:56:39;;;;;;;29.67;19.10;;;;;;;4.90;90.85;100073.03;1451599;89;21305;-88
2021/11/22 01:59:05;;;;;;;23.83;17.40;;;;;;;4.93;90.67;100073.27;1451281;90;21307;-88
2021/11/22 02:01:32;;;;;;;24.17;17.00;;;;;;;4.95;90.58;100074.82;1451018;90;21378;-89
2021/11/22 02:03:58;;;;;;;28.27;18.67;;;;;;;4.93;90.45;100071.47;1458663;90;23579;-90
2021/11/22 02:06:25;;;;;;;30.23;18.03;;;;;;;4.95;90.61;100073.52;1453276;90;21481;-89
2021/11/22 02:08:51;;;;;;;28.63;19.63;;;;;;;5.00;90.52;100072.30;1434809;90;22331;-89
2021/11/22 02:11:18;;;;;;;23.70;16.23;;;;;;;5.02;90.61;100076.95;1462518;90;21788;-90
2021/11/22 02:13:44;;;;;;;27.17;18.70;;;;;;;5.02;90.41;100080.89;1454419;90;21474;-90
2021/11/22 02:16:10;;;;;;;29.07;19.43;;;;;;;5.02;90.40;100073.02;1452750;90;22264;-90
2021/11/22 02:18:36;;;;;;;32.83;20.10;;;;;;;4.96;90.32;100075.17;1446542;90;21327;-90
2021/11/22 02:21:03;;;;;;;27.17;18.93;;;;;;;4.95;90.43;100078.75;1452506;90;22331;-90
2021/11/22 02:23:29;;;;;;;27.63;18.63;;;;;;;4.94;90.40;100070.99;1458031;90;22323;-89
2021/11/22 02:25:55;;;;;;;30.63;20.50;;;;;;;4.96;90.37;100072.55;1455259;90;21334;-90
2021/11/22 02:28:21;;;;;;;25.30;19.37;;;;;;;5.00;90.37;100075.75;1452329;90;21363;-90
2021/11/22 02:30:49;;;;;;;27.60;19.50;;;;;;;5.01;90.35;100077.44;1438631;90;21858;-90
2021/11/22 02:33:20;;;;;;;27.90;18.43;;;;;;;5.03;90.18;100078.61;1450791;90;21415;-90
2021/11/22 02:35:51;;;;;;;24.20;17.37;;;;;;;5.04;90.12;100084.23;1454952;89;21415;-91
2021/11/22 02:38:21;;;;;;;27.30;18.70;;;;;;;5.02;89.98;100089.59;1462648;90;21393;-91
2021/11/22 02:40:47;;;;;;;27.00;18.07;;;;;;;4.93;89.98;100083.28;1454884;90;21275;-91
2021/11/22 02:43:14;;;;;;;23.27;17.00;;;;;;;4.89;90.10;100084.48;1449060;90;22426;-90
2021/11/22 02:45:40;;;;;;;27.97;19.50;;;;;;;4.87;90.11;100084.24;1455712;90;21371;-90
2021/11/22 02:48:07;;;;;;;25.53;18.43;;;;;;;4.87;90.17;100083.76;1448677;89;21467;-91
2021/11/22 02:50:33;;;;;;;25.13;17.73;;;;;;;4.87;90.17;100079.83;1454330;90;22571;-90
2021/11/22 02:53:00;;;;;;;23.80;17.53;;;;;;;4.86;90.24;100080.80;1452840;89;21371;-89
2021/11/22 02:55:26;;;;;;;27.83;19.17;;;;;;;4.83;90.22;100084.94;1453393;89;21430;-89
2021/11/22 02:57:52;;;;;;;24.57;17.23;;;;;;;4.83;90.13;100084.11;1450720;90;21533;-89
2021/11/22 03:00:26;;;;;;;28.10;20.10;;;;;;;4.82;90.33;100085.90;1438663;90;21416;-88
2021/11/22 03:02:52;;;;;;;25.83;18.50;;;;;;;4.79;90.43;100094.00;1454328;90;21526;-88
2021/11/22 03:05:20;;;;;;;24.67;17.63;;;;;;;4.81;90.37;100091.28;1455239;90;21304;-89
2021/11/22 03:07:51;;;;;;;27.93;18.97;;;;;;;4.81;90.63;100092.11;1438044;90;21474;-88
2021/11/22 03:10:19;;;;;;;28.10;18.00;;;;;;;4.83;90.51;100090.66;1453357;90;22910;-88
2021/11/22 03:12:46;;;;;;;25.73;18.17;;;;;;;4.88;90.48;100094.59;1446478;90;22368;-88
2021/11/22 03:15:16;;;;;;;27.43;18.77;;;;;;;4.89;90.38;100087.55;1446736;90;21460;-88
2021/11/22 03:17:45;;;;;;;24.07;17.27;;;;;;;4.91;90.21;100093.05;1444645;89;21387;-90
2021/11/22 03:20:15;;;;;;;28.33;17.03;;;;;;;4.90;90.28;100080.89;1447935;90;22576;-88
2021/11/22 03:22:43;;;;;;;26.73;18.40;;;;;;;4.89;90.06;100084.48;1439698;90;21519;-88
2021/11/22 03:25:12;;;;;;;27.23;18.43;;;;;;;4.83;89.86;100084.94;1451486;89;21601;-89
2021/11/22 03:27:42;;;;;;;26.10;17.60;;;;;;;4.80;89.93;100090.41;1444237;90;21519;-88
2021/11/22 03:30:12;;;;;;;27.73;18.27;;;;;;;4.79;89.89;100094.48;1437595;90;21511;-88
2021/11/22 03:32:39;;;;;;;24.57;16.40;;;;;;;4.80;89.98;100089.11;1449538;90;21341;-89
2021/11/22 03:35:06;;;;;;;24.23;16.33;;;;;;;4.82;89.82;100097.70;1444723;90;22214;-89
2021/11/22 03:37:33;;;;;;;26.73;16.73;;;;;;;4.80;89.74;100098.28;1455557;90;21378;-90
2021/11/22 03:40:00;;;;;;;29.23;17.60;;;;;;;4.81;89.64;100105.22;1440437;90;21486;-89
2021/11/22 03:42:36;;;;;;;26.80;18.33;;;;;;;4.80;89.86;100097.45;1445966;90;21275;-88
2021/11/22 03:44:55;;;;;;;24.50;17.63;;;;;;;4.79;89.89;100094.48;1439036;90;21452;-88
2021/11/22 03:47:21;;;;;;;27.80;17.93;;;;;;;4.74;89.89;100098.77;1445344;90;22302;-88
2021/11/22 03:49:47;;;;;;;27.77;19.00;;;;;;;4.71;90.25;100099.83;1444383;90;21445;-89
2021/11/22 03:52:13;;;;;;;22.93;16.23;;;;;;;4.72;90.16;100094.96;1445598;90;21422;-90
2021/11/22 03:54:40;;;;;;;26.00;17.90;;;;;;;4.74;90.19;100106.62;1439923;89;21541;-89
2021/11/22 03:57:06;;;;;;;25.97;17.10;;;;;;;4.77;90.07;100105.56;1449540;89;21268;-89
2021/11/22 03:59:34;;;;;;;28.97;18.27;;;;;;;4.79;90.12;100101.87;1442928;89;21468;-89
2021/11/22 04:04:35;;;;;;;25.50;16.70;;;;;;;4.81;90.02;100102.59;1409625;86;23935;31
2021/11/22 04:07:05;;;;;;;26.87;18.20;;;;;;;4.80;89.82;100111.39;1402580;84;21625;31
2021/11/22 04:09:35;;;;;;;28.00;17.77;;;;;;;4.76;89.91;100112.59;1339650;90;23214;31
2021/11/22 04:12:06;;;;;;;25.25;17.20;;;;;;;4.74;89.77;100119.25;1375813;86;21507;31
2021/11/22 04:14:39;;;;;;;23.37;15.80;;;;;;;4.73;90.19;100122.02;1402358;87;22025;31
2021/11/22 04:19:38;;;;;;;22.23;15.27;;;;;;;4.83;90.15;100134.75;1404062;87;23621;31
2021/11/22 04:22:08;;;;;;;25.88;17.10;;;;;;;4.87;89.91;100131.45;1370538;87;23718;31
2021/11/22 04:24:39;;;;;;;28.13;18.13;;;;;;;4.87;89.70;100128.82;1376597;87;21530;31
2021/11/22 04:27:11;;;;;;;26.68;18.32;;;;;;;4.82;89.45;100129.64;1374207;87;21537;31
2021/11/22 04:29:40;;;;;;;28.47;18.87;;;;;;;4.77;89.50;100126.05;1372825;87;21530;31
2021/11/22 04:32:10;;;;;;;23.87;17.00;;;;;;;4.77;89.61;100127.36;1400323;87;21640;31
2021/11/22 04:34:43;;;;;;;23.87;16.30;;;;;;;4.75;89.79;100132.74;1374124;88;23363;31
2021/11/22 04:39:40;;;;;;;24.67;17.13;;;;;;;4.82;89.79;100133.09;1409932;85;21735;31
2021/11/22 04:42:09;;;;;;;25.13;16.70;;;;;;;4.84;89.73;100125.95;1364151;88;24038;31
2021/11/22 04:44:39;;;;;;;22.50;16.03;;;;;;;4.84;89.49;100131.20;1363504;88;21678;31
2021/11/22 04:47:09;;;;;;;30.60;19.37;;;;;;;4.82;89.34;100138.82;1406331;86;21795;31
2021/11/22 04:49:40;;;;;;;23.67;16.37;;;;;;;4.80;89.56;100142.03;1401896;86;21801;31
2021/11/22 04:54:44;;;;;;;27.37;19.30;;;;;;;4.75;89.68;100146.33;1366355;88;22563;31
2021/11/22 04:57:14;;;;;;;29.50;18.35;;;;;;;4.73;89.78;100148.23;1373898;87;21694;31
2021/11/22 04:59:47;;;;;;;26.90;16.13;;;;;;;4.74;89.70;100153.81;1396565;86;21771;31
2021/11/22 05:02:17;;;;;;;23.60;16.73;;;;;;;4.76;89.67;100153.23;1363801;88;21536;31
2021/11/22 05:04:46;;;;;;;23.90;16.27;;;;;;;4.80;89.75;100153.34;1370588;87;21673;31
2021/11/22 05:12:21;;;;;;;27.00;18.67;;;;;;;4.84;89.71;100170.53;1429299;90;21325;-91
2021/11/22 05:17:27;;;;;;;28.23;18.13;;;;;;;4.77;89.47;100171.94;1409703;85;23030;31
2021/11/22 05:22:31;;;;;;;25.57;17.93;;;;;;;4.75;89.64;100172.07;1377712;87;21862;31
2021/11/22 05:25:03;;;;;;;27.63;18.10;;;;;;;4.79;89.74;100170.52;1378840;87;21544;31
2021/11/22 05:27:32;;;;;;;24.43;17.03;;;;;;;4.78;89.59;100171.00;1381893;87;23778;31
2021/11/22 05:30:01;;;;;;;25.00;16.93;;;;;;;4.70;89.48;100179.44;1405455;85;21463;31
2021/11/22 05:32:31;;;;;;;28.43;18.83;;;;;;;4.66;89.58;100175.84;1391154;87;21727;31
2021/11/22 05:39:55;;;;;;;29.57;19.87;;;;;;;4.61;90.33;100180.63;1387331;86;22198;31
2021/11/22 05:42:21;;;;;;;28.73;18.80;;;;;;;4.60;90.37;100185.48;1429587;86;21681;-90
2021/11/22 05:44:48;;;;;;;29.60;19.57;;;;;;;4.63;90.39;100185.25;1485715;85;21298;-90
2021/11/22 05:47:14;;;;;;;30.00;18.57;;;;;;;4.63;90.49;100193.11;1449463;85;24126;-88
2021/11/22 05:49:46;;;;;;;28.67;18.90;;;;;;;4.64;90.23;100190.88;1414818;85;25443;31
2021/11/22 05:52:16;;;;;;;28.57;19.33;;;;;;;4.68;90.29;100194.92;1405510;86;22416;31
2021/11/22 05:54:51;;;;;;;34.23;17.55;;;;;;;4.71;90.48;100198.62;1436645;86;21670;31
2021/11/22 05:59:44;;;;;;;30.20;19.03;;;;;;;4.73;90.37;100187.55;1416151;86;21677;31
2021/11/22 06:05:00;;;;;;;33.17;18.60;;;;;;;4.75;90.45;100202.70;1474988;90;22120;-90
2021/11/22 06:07:26;;;;;;;51.30;33.70;;;;;;;4.76;90.00;100208.30;1415612;91;21420;-89
2021/11/22 06:09:54;;;;;;;165.70;87.03;;;;;;;4.76;90.01;100212.23;1445900;91;21428;-89
2021/11/22 06:14:53;;;;;;;50.80;32.40;;;;;;;4.84;90.14;100209.87;1419845;86;21707;31
2021/11/22 06:17:25;;;;;;;41.55;26.68;;;;;;;4.84;89.85;100212.48;1419649;86;21693;31
2021/11/22 06:22:23;;;;;;;122.73;60.93;;;;;;;4.76;89.60;100210.91;1412756;85;21909;31
2021/11/22 06:27:39;;;;;;;49.13;27.23;;;;;;;4.76;89.85;100222.72;1481496;87;21581;-88
2021/11/22 06:30:07;;;;;;;536.10;272.50;;;;;;;4.80;89.95;100229.39;1486493;87;22575;-87
2021/11/22 06:32:34;;;;;;;114.17;53.43;;;;;;;4.82;89.93;100229.28;1491708;87;21397;-88
2021/11/22 06:35:00;;;;;;;27.30;18.27;;;;;;;4.86;89.91;100237.27;1488172;87;22455;-88
2021/11/22 06:37:27;;;;;;;33.27;19.03;;;;;;;4.90;90.01;100231.69;1471570;88;21361;-88
2021/11/22 06:39:55;;;;;;;46.70;26.50;;;;;;;4.96;89.86;100240.40;1488234;87;21411;-87
2021/11/22 06:42:21;;;;;;;35.23;21.33;;;;;;;4.96;89.58;100240.40;1488772;88;21301;-89
2021/11/22 06:44:48;;;;;;;55.30;30.97;;;;;;;5.00;89.59;100244.09;1429538;91;21391;-88
2021/11/22 06:47:16;;;;;;;89.37;45.17;;;;;;;5.01;89.52;100249.73;1487170;87;22300;-86
2021/11/22 06:49:42;;;;;;;199.93;95.80;;;;;;;4.98;89.47;100250.30;1486929;88;21287;-88
2021/11/22 06:52:08;;;;;;;58.60;33.70;;;;;;;5.00;89.52;100251.97;1474878;88;21383;-88
2021/11/22 06:54:34;;;;;;;71.97;40.77;;;;;;;5.03;89.49;100247.32;1484502;87;21427;-88
2021/11/22 06:57:02;;;;;;;46.07;25.80;;;;;;;5.08;89.56;100251.75;1479809;87;21390;-88
2021/11/22 06:59:29;;;;;;;78.30;38.13;;;;;;;5.12;89.40;100252.34;1491857;87;22190;-88
2021/11/22 07:01:56;;;;;;;78.00;39.53;;;;;;;5.16;89.19;100244.61;1481406;87;21486;-88
2021/11/22 07:04:22;;;;;;;37.47;19.33;;;;;;;5.20;88.96;100244.72;1468957;88;22299;-87
2021/11/22 07:06:48;;;;;;;42.97;25.10;;;;;;;5.14;88.37;100249.13;1484489;88;21331;-87
2021/11/22 07:09:15;;;;;;;45.87;25.87;;;;;;;5.14;88.58;100255.20;1425457;91;21354;-88
2021/11/22 07:11:41;;;;;;;30.93;20.67;;;;;;;5.15;88.74;100252.97;1487475;87;21347;-88
2021/11/22 07:14:07;;;;;;;86.57;46.37;;;;;;;5.21;88.94;100260.84;1418058;91;21906;-88
2021/11/22 07:16:33;;;;;;;99.40;50.47;;;;;;;5.27;89.00;100259.06;1487708;87;21397;-88
2021/11/22 07:18:59;;;;;;;55.40;31.57;;;;;;;5.35;88.94;100252.75;1424988;91;21443;-87
2021/11/22 07:21:25;;;;;;;24.53;15.70;;;;;;;5.45;88.05;100259.91;1480867;87;22403;-88
2021/11/22 07:23:52;;;;;;;62.37;33.63;;;;;;;5.41;86.95;100258.84;1434370;91;21369;-88
2021/11/22 07:26:18;;;;;;;41.00;23.17;;;;;;;5.51;87.78;100264.68;1486608;87;21412;-88
2021/11/22 07:28:45;;;;;;;23.30;15.50;;;;;;;5.58;87.85;100256.22;1480592;87;22403;-87
2021/11/22 07:31:11;;;;;;;48.37;26.30;;;;;;;5.53;85.62;100269.34;1484127;87;21413;-88
2021/11/22 07:33:38;;;;;;;57.00;30.70;;;;;;;5.60;87.12;100268.73;1480530;87;21376;-88
2021/11/22 07:36:04;;;;;;;55.17;28.13;;;;;;;5.72;87.74;100268.24;1486216;88;22351;-88
2021/11/22 07:38:30;;;;;;;62.57;33.20;;;;;;;5.84;87.75;100269.92;1472843;88;21515;-88
2021/11/22 07:40:57;;;;;;;70.37;35.10;;;;;;;5.95;87.24;100274.34;1421121;91;21527;-89
2021/11/22 07:43:23;;;;;;;40.17;23.00;;;;;;;6.02;86.59;100268.97;1482753;88;21442;-87
2021/11/22 07:45:49;;;;;;;50.77;29.10;;;;;;;6.03;85.84;100269.80;1480026;88;22292;-87
2021/11/22 07:48:16;;;;;;;37.70;22.00;;;;;;;6.06;85.65;100276.12;1472723;88;21479;-87
2021/11/22 07:50:45;;;;;;;80.50;41.67;;;;;;;6.09;85.69;100279.81;1485642;88;21338;-88
2021/11/22 07:53:12;;;;;;;45.83;25.77;;;;;;;6.18;85.84;100283.02;1470397;88;22285;-88
2021/11/22 07:55:38;;;;;;;74.47;39.40;;;;;;;6.20;84.14;100283.73;1427462;91;21420;-88
2021/11/22 07:58:04;;;;;;;33.70;20.37;;;;;;;6.28;85.18;100285.28;1485939;88;21309;-88
2021/11/22 08:00:30;;;;;;;33.20;21.60;;;;;;;6.26;83.96;100293.76;1482497;88;22255;-87
2021/11/22 08:02:57;;;;;;;27.83;17.70;;;;;;;6.30;83.48;100294.34;1481675;88;21374;-88
2021/11/22 08:05:25;;;;;;;23.07;16.97;;;;;;;6.23;82.91;100294.00;1483407;88;22248;-87
2021/11/22 08:07:54;;;;;;;27.53;18.77;;;;;;;6.04;83.35;100292.48;1471995;88;22808;-88
2021/11/22 08:12:51;;;;;;;25.47;17.37;;;;;;;6.03;84.17;100298.70;1484539;87;21495;-87
2021/11/22 08:15:19;;;;;;;24.63;17.43;;;;;;;6.01;84.24;100294.03;1430683;91;21466;-87
2021/11/22 08:17:47;;;;;;;25.67;16.50;;;;;;;6.14;85.10;100292.60;1481987;87;22263;-87
2021/11/22 08:20:16;;;;;;;21.67;13.90;;;;;;;6.17;83.90;100290.56;1485739;87;21338;-87
2021/11/22 08:22:44;;;;;;;28.23;19.17;;;;;;;6.16;84.80;100290.66;1482456;88;22329;-89
2021/11/22 08:25:11;;;;;;;26.60;18.27;;;;;;;6.30;84.30;100291.71;1491591;87;21361;-89
2021/11/22 08:27:40;;;;;;;21.30;15.07;;;;;;;6.40;84.36;100297.08;1488424;87;21434;-88
2021/11/22 08:30:11;;;;;;;37.93;26.37;;;;;;;6.35;83.55;100296.61;1485716;87;21391;-88
2021/11/22 08:32:40;;;;;;;28.93;18.63;;;;;;;6.49;84.32;100303.73;1484547;87;21382;-89
2021/11/22 08:35:08;;;;;;;37.37;20.90;;;;;;;6.50;82.89;100307.19;1491341;87;21560;-87
2021/11/22 08:47:40;;;;;;;23.15;16.00;;;;;;;6.58;82.58;100317.92;1406668;84;21554;31
2021/11/22 08:50:08;;;;;;;38.80;22.87;;;;;;;6.54;82.50;100325.23;1369481;87;23769;31
2021/11/22 08:52:40;;;;;;;43.63;24.77;;;;;;;6.64;83.03;100317.42;1356284;86;23847;31
2021/11/22 08:55:08;;;;;;;35.03;21.13;;;;;;;6.75;83.06;100320.50;1401796;86;21720;31
2021/11/22 08:57:39;;;;;;;37.20;23.40;;;;;;;6.85;82.38;100319.25;1411659;84;23796;31
2021/11/22 09:00:11;;;;;;;36.13;22.52;;;;;;;6.99;82.15;100309.73;1409831;84;23525;31
2021/11/22 09:05:07;;;;;;;71.40;39.60;;;;;;;7.12;81.73;100313.03;1381977;87;23810;31
2021/11/22 09:07:37;;;;;;;29.23;18.33;;;;;;;7.37;82.03;100310.98;1357143;87;21678;31
2021/11/22 09:10:09;;;;;;;36.83;23.33;;;;;;;7.54;78.42;100306.44;1399733;86;21698;31
2021/11/22 09:15:06;;;;;;;38.47;25.27;;;;;;;7.94;79.67;100313.55;1383503;85;25450;31
2021/11/22 09:17:39;;;;;;;34.10;24.60;;;;;;;8.07;79.38;100322.03;1381900;87;21691;31
2021/11/22 09:22:38;;;;;;;25.47;18.33;;;;;;;8.05;75.95;100318.69;1399098;86;21699;31
2021/11/22 09:25:09;;;;;;;;;;;;;;;8.30;77.53;100327.09;1381855;88;21632;31
2021/11/22 09:27:42;;;;;;;38.80;23.20;;;;;;;8.59;73.60;100325.36;1378967;88;20949;31
2021/11/22 09:35:27;;;;;;;19.37;14.53;;;;;;;9.25;71.53;100329.11;1381575;90;22920;-84
2021/11/22 09:37:54;;;;;;;22.33;17.63;;;;;;;9.43;68.92;100327.39;1375347;88;21245;-85
2021/11/22 09:40:21;;;;;;;26.33;18.37;;;;;;;9.68;70.50;100322.47;1373243;90;22169;-85
2021/11/22 09:42:47;;;;;;;24.20;18.13;;;;;;;10.12;68.92;100317.41;1360204;90;22350;-85
2021/11/22 09:45:16;;;;;;;21.60;15.70;;;;;;;10.09;67.23;100317.70;1372854;90;21423;-86
2021/11/22 09:47:43;;;;;;;34.07;22.83;;;;;;;9.81;67.91;100311.09;1373108;90;21253;-85
2021/11/22 09:50:09;;;;;;;42.97;27.67;;;;;;;10.15;69.06;100317.11;1373008;90;21372;-84
2021/11/22 09:52:35;;;;;;;18.53;14.97;;;;;;;10.67;66.85;100307.27;1372976;90;22236;-84
2021/11/22 09:55:03;;;;;;;24.40;18.93;;;;;;;10.29;66.26;100306.06;1373030;89;21282;-83
2021/11/22 09:57:29;;;;;;;23.63;17.30;;;;;;;10.76;66.11;100306.35;1373064;90;21282;-82
2021/11/22 09:59:55;;;;;;;29.43;20.50;;;;;;;10.99;66.14;100300.09;1372929;90;21305;-82
2021/11/22 10:02:44;;;;;;;97.37;58.27;;;;;;;11.43;65.55;100295.63;1373050;89;22191;-84
2021/11/22 10:05:29;;;;;;;24.43;17.57;;;;;;;11.81;64.02;100295.33;1372433;90;21542;-84
2021/11/22 10:08:01;;;;;;;18.97;16.33;;;;;;;11.53;63.64;100302.13;1372615;90;21342;-83
2021/11/22 10:10:33;;;;;;;20.47;16.17;;;;;;;11.15;62.88;100300.23;1372869;90;21395;-82
2021/11/22 10:13:04;;;;;;;22.13;18.10;;;;;;;10.57;64.30;100299.41;1373181;90;21319;-85
2021/11/22 10:15:33;;;;;;;19.50;15.13;;;;;;;10.26;66.63;100300.21;1370961;90;21431;-84
2021/11/22 10:18:00;;;;;;;28.40;19.83;;;;;;;9.86;67.36;100309.32;1372908;90;21304;-84
2021/11/22 10:20:27;;;;;;;42.73;27.03;;;;;;;9.81;68.83;100312.42;1359763;91;21357;-85
2021/11/22 10:23:03;;;;;;;24.77;17.93;;;;;;;9.71;69.50;100310.29;1372885;90;22185;-86
2021/11/22 10:25:38;;;;;;;31.63;22.17;;;;;;;9.68;69.88;100307.44;1372801;89;21327;-86
2021/11/22 10:28:12;;;;;;;17.93;14.67;;;;;;;9.82;70.78;100306.64;1372768;90;21342;-86
2021/11/22 10:30:43;;;;;;;24.90;18.10;;;;;;;9.91;70.92;100309.72;1373072;90;21327;-87
2021/11/22 10:33:12;;;;;;;30.00;20.90;;;;;;;10.01;70.36;100312.31;1373117;90;21253;-88
2021/11/22 10:35:40;;;;;;;33.13;22.70;;;;;;;10.06;69.44;100316.67;1382079;89;21422;-88
2021/11/22 10:38:19;;;;;;;32.47;22.53;;;;;;;10.04;70.01;100316.84;1382813;89;21378;-88
2021/11/22 10:41:03;;;;;;;26.17;18.80;;;;;;;9.96;69.49;100318.55;1382669;89;22073;-87
2021/11/22 10:43:50;;;;;;;20.87;16.17;;;;;;;9.85;69.47;100311.14;1382781;89;21452;-87
2021/11/22 10:46:41;;;;;;;23.10;17.40;;;;;;;9.42;68.99;100309.89;1382675;89;21245;-88
2021/11/22 10:49:31;;;;;;;34.90;21.10;;;;;;;9.24;69.96;100311.61;1382131;89;22324;-87
2021/11/22 10:52:40;;;;;;;42.40;26.13;;;;;;;9.15;70.60;100308.47;1382761;89;22029;-88
2021/11/22 10:55:09;;;;;;;41.13;26.17;;;;;;;9.12;70.90;100312.72;1373925;89;21407;-88
2021/11/22 22:53:05;;;;;;;8.43;5.20;;;;;;;5.48;80.64;100739.58;1392390;85;21548;-89
2021/11/22 22:55:32;;;;;;;6.33;4.87;;;;;;;5.49;80.64;100740.41;1370870;89;21599;-90
2021/11/22 22:58:04;;;;;;;10.93;6.60;;;;;;;5.47;80.37;100744.92;1339278;93;21394;-89
2021/11/22 23:00:53;;;;;;;12.77;7.10;;;;;;;5.46;80.30;100744.09;1343483;93;21306;-90
2021/11/22 23:19:17;;;;;;;8.23;5.50;;;;;;;5.29;79.89;100743.95;1337685;106;22184;-89
2021/11/22 23:21:43;;;;;;;8.63;5.43;;;;;;;5.25;79.86;100748.22;1341669;92;21239;-90
2021/11/22 23:24:10;;;;;;;8.37;5.77;;;;;;;5.25;79.90;100756.92;1342453;93;21314;-90
2021/11/22 23:26:37;;;;;;;7.67;5.30;;;;;;;5.22;79.80;100754.52;1345999;93;21311;-89
2021/11/22 23:29:10;;;;;;;9.23;5.80;;;;;;;5.21;79.82;100750.22;1342033;93;21245;-90
2021/11/22 23:31:38;;;;;;;8.37;5.70;;;;;;;5.16;79.81;100755.77;1342211;91;21327;-88
2021/11/22 23:34:05;;;;;;;8.23;6.20;;;;;;;5.12;79.96;100758.70;1338826;93;21350;-89
2021/11/22 23:36:32;;;;;;;7.97;5.27;;;;;;;5.11;79.88;100759.65;1337437;91;21423;-89
2021/11/22 23:39:01;;;;;;;10.17;6.97;;;;;;;5.06;79.96;100766.98;1338677;94;21267;-89
2021/11/22 23:41:32;;;;;;;11.43;7.03;;;;;;;5.05;80.04;100766.15;1342769;92;21319;-88
2021/11/22 23:43:59;;;;;;;11.43;6.03;;;;;;;5.00;80.07;100770.03;1340944;91;21327;-89
2021/11/22 23:46:25;;;;;;;7.77;5.73;;;;;;;4.98;80.04;100774.08;1340700;93;21223;-90
2021/11/22 23:48:51;;;;;;;8.53;6.03;;;;;;;4.95;79.95;100778.22;1352043;91;21313;-90
2021/11/22 23:51:20;;;;;;;9.67;6.57;;;;;;;4.89;79.95;100776.85;1339774;92;21320;-90
2021/11/22 23:53:46;;;;;;;8.27;5.33;;;;;;;4.84;80.10;100784.18;1333449;93;21335;-89
2021/11/22 23:56:14;;;;;;;10.33;6.67;;;;;;;4.84;79.99;100776.31;1336395;93;21350;-90
2021/11/22 23:58:42;;;;;;;8.77;5.37;;;;;;;4.84;79.97;100783.34;1341205;93;22862;-91
